JAL902 ROAH-RJTT
Flight info
| Callsign | JAL902 |
|---|---|
| Flight time | 1h 51m |
| Altitude | 35000 |
| Route | AMAMI Y574 SHIBK Y57 SUKBO Y571 BILLY Y21 AKSEL |
| Aircraft | B77W/H-SDE1E2E3FGHIJ2J3J4J5M1RWXY/LB1D1 |
Departure
| Time | 2026-05-04 00:51 |
|---|---|
| Airport | Naha International Airport (ROAH) |
Arrival
| Time | 2026-05-04 02:43 |
|---|---|
| Airport | Tokyo Haneda International Airport (RJTT) |
| Time | Latitude | Longitude | Altitude | Speed | Heading |
|---|---|---|---|---|---|
| 2026-05-04 00:35 | 26.20435 | 127.64858 | 18 ft | 0 kts | 48° |
| 2026-05-04 00:42 | 26.20425 | 127.64846 | 18 ft | 2 kts | 57° |
| 2026-05-04 00:42 | 26.20419 | 127.64831 | 18 ft | 2 kts | 76° |
| 2026-05-04 00:43 | 26.20417 | 127.64815 | 18 ft | 2 kts | 91° |
| 2026-05-04 00:43 | 26.20419 | 127.64798 | 18 ft | 2 kts | 107° |
| 2026-05-04 00:43 | 26.20424 | 127.64783 | 18 ft | 2 kts | 122° |
| 2026-05-04 00:43 | 26.20434 | 127.64770 | 18 ft | 2 kts | 137° |
| 2026-05-04 00:44 | 26.20446 | 127.64759 | 18 ft | 2 kts | 153° |
| 2026-05-04 00:44 | 26.20460 | 127.64753 | 18 ft | 2 kts | 168° |
| 2026-05-04 00:44 | 26.20469 | 127.64751 | 18 ft | 0 kts | 178° |
| 2026-05-04 00:44 | 26.20473 | 127.64751 | 18 ft | 0 kts | 178° |
| 2026-05-04 00:46 | 26.20447 | 127.64752 | 18 ft | 10 kts | 178° |
| 2026-05-04 00:46 | 26.20332 | 127.64758 | 18 ft | 22 kts | 178° |
| 2026-05-04 00:47 | 26.20171 | 127.64765 | 18 ft | 22 kts | 178° |
| 2026-05-04 00:47 | 26.20013 | 127.64773 | 18 ft | 23 kts | 176° |
| 2026-05-04 00:47 | 26.19843 | 127.64780 | 18 ft | 25 kts | 178° |
| 2026-05-04 00:47 | 26.19666 | 127.64789 | 18 ft | 24 kts | 178° |
| 2026-05-04 00:48 | 26.19502 | 127.64797 | 18 ft | 22 kts | 177° |
| 2026-05-04 00:48 | 26.19338 | 127.64805 | 18 ft | 25 kts | 178° |
| 2026-05-04 00:48 | 26.19164 | 127.64812 | 18 ft | 23 kts | 178° |
| 2026-05-04 00:48 | 26.19002 | 127.64820 | 18 ft | 24 kts | 178° |
| 2026-05-04 00:49 | 26.18828 | 127.64828 | 18 ft | 24 kts | 178° |
| 2026-05-04 00:49 | 26.18665 | 127.64836 | 18 ft | 22 kts | 177° |
| 2026-05-04 00:49 | 26.18516 | 127.64844 | 18 ft | 20 kts | 178° |
| 2026-05-04 00:49 | 26.18380 | 127.64851 | 18 ft | 18 kts | 176° |
| 2026-05-04 00:50 | 26.18265 | 127.64835 | 18 ft | 15 kts | 225° |
| 2026-05-04 00:50 | 26.18242 | 127.64724 | 18 ft | 13 kts | 269° |
| 2026-05-04 00:50 | 26.18283 | 127.64651 | 18 ft | 14 kts | 349° |
| 2026-05-04 00:50 | 26.18482 | 127.64638 | 18 ft | 56 kts | 357° |
| 2026-05-04 00:51 | 26.19114 | 127.64610 | 18 ft | 122 kts | 359° |
| 2026-05-04 00:51 | 26.20145 | 127.64562 | 94 ft | 168 kts | 359° |
| 2026-05-04 00:51 | 26.21302 | 127.64505 | 811 ft | 167 kts | 359° |
| 2026-05-04 00:51 | 26.22434 | 127.64500 | 1671 ft | 159 kts | 1° |
| 2026-05-04 00:52 | 26.23567 | 127.64792 | 1925 ft | 180 kts | 27° |
| 2026-05-04 00:52 | 26.24527 | 127.65850 | 2203 ft | 206 kts | 48° |
| 2026-05-04 00:52 | 26.25440 | 127.67179 | 2580 ft | 226 kts | 49° |
| 2026-05-04 00:52 | 26.26427 | 127.68626 | 3051 ft | 243 kts | 49° |
| 2026-05-04 00:53 | 26.27461 | 127.70139 | 3706 ft | 252 kts | 50° |
| 2026-05-04 00:53 | 26.28539 | 127.71713 | 4339 ft | 261 kts | 50° |
| 2026-05-04 00:53 | 26.29674 | 127.73374 | 4967 ft | 271 kts | 51° |
| 2026-05-04 00:53 | 26.30836 | 127.75075 | 5574 ft | 281 kts | 52° |
| 2026-05-04 00:54 | 26.32023 | 127.76815 | 6183 ft | 290 kts | 53° |
| 2026-05-04 00:54 | 26.33273 | 127.78650 | 6856 ft | 296 kts | 53° |
| 2026-05-04 00:54 | 26.34523 | 127.80484 | 7519 ft | 302 kts | 53° |
| 2026-05-04 00:54 | 26.35800 | 127.82361 | 8165 ft | 307 kts | 53° |
| 2026-05-04 00:55 | 26.37104 | 127.84277 | 8785 ft | 314 kts | 53° |
| 2026-05-04 00:55 | 26.38432 | 127.86229 | 9404 ft | 320 kts | 53° |
| 2026-05-04 00:55 | 26.39800 | 127.88240 | 10026 ft | 325 kts | 53° |
| 2026-05-04 00:55 | 26.41188 | 127.90284 | 10444 ft | 340 kts | 53° |
| 2026-05-04 00:56 | 26.42665 | 127.92457 | 10660 ft | 362 kts | 53° |
| 2026-05-04 00:56 | 26.44226 | 127.94757 | 10885 ft | 383 kts | 53° |
| 2026-05-04 00:56 | 26.45900 | 127.97222 | 11148 ft | 404 kts | 53° |
| 2026-05-04 00:56 | 26.47626 | 127.99766 | 11416 ft | 422 kts | 53° |
| 2026-05-04 00:57 | 26.49442 | 128.02444 | 12000 ft | 431 kts | 52° |
| 2026-05-04 00:57 | 26.51252 | 128.05116 | 12751 ft | 436 kts | 52° |
| 2026-05-04 00:57 | 26.53083 | 128.07820 | 13451 ft | 441 kts | 52° |
| 2026-05-04 00:57 | 26.54965 | 128.10600 | 14140 ft | 447 kts | 52° |
| 2026-05-04 00:58 | 26.56842 | 128.13377 | 14830 ft | 453 kts | 52° |
| 2026-05-04 00:58 | 26.58766 | 128.16223 | 15611 ft | 456 kts | 52° |
| 2026-05-04 00:58 | 26.60684 | 128.19063 | 16328 ft | 461 kts | 51° |
| 2026-05-04 00:58 | 26.62617 | 128.21927 | 17053 ft | 465 kts | 51° |
| 2026-05-04 00:59 | 26.64591 | 128.24852 | 17726 ft | 471 kts | 51° |
| 2026-05-04 00:59 | 26.66566 | 128.27780 | 18289 ft | 478 kts | 51° |
| 2026-05-04 00:59 | 26.68591 | 128.30786 | 18965 ft | 482 kts | 51° |
| 2026-05-04 00:59 | 26.70637 | 128.33742 | 19665 ft | 484 kts | 49° |
| 2026-05-04 01:00 | 26.72760 | 128.36710 | 20365 ft | 487 kts | 50° |
| 2026-05-04 01:00 | 26.74868 | 128.39655 | 20967 ft | 491 kts | 49° |
| 2026-05-04 01:00 | 26.77029 | 128.42679 | 21529 ft | 496 kts | 49° |
| 2026-05-04 01:00 | 26.79183 | 128.45702 | 22169 ft | 499 kts | 50° |
| 2026-05-04 01:01 | 26.81367 | 128.48770 | 22801 ft | 502 kts | 50° |
| 2026-05-04 01:01 | 26.83539 | 128.51827 | 23391 ft | 505 kts | 50° |
| 2026-05-04 01:01 | 26.85723 | 128.54904 | 23967 ft | 509 kts | 50° |
| 2026-05-04 01:01 | 26.87952 | 128.58046 | 24547 ft | 513 kts | 50° |
| 2026-05-04 01:02 | 26.90164 | 128.61165 | 25067 ft | 517 kts | 49° |
| 2026-05-04 01:02 | 26.92633 | 128.64116 | 25650 ft | 518 kts | 40° |
| 2026-05-04 01:02 | 26.95434 | 128.66629 | 26102 ft | 520 kts | 31° |
| 2026-05-04 01:02 | 26.98534 | 128.68716 | 26578 ft | 522 kts | 26° |
| 2026-05-04 01:03 | 27.01776 | 128.70694 | 27109 ft | 525 kts | 25° |
| 2026-05-04 01:03 | 27.04987 | 128.72636 | 27597 ft | 529 kts | 25° |
| 2026-05-04 01:03 | 27.08259 | 128.74618 | 28172 ft | 531 kts | 25° |
| 2026-05-04 01:03 | 27.11524 | 128.76598 | 28657 ft | 535 kts | 25° |
| 2026-05-04 01:04 | 27.14817 | 128.78595 | 29067 ft | 541 kts | 25° |
| 2026-05-04 01:04 | 27.18122 | 128.80603 | 29588 ft | 543 kts | 25° |
| 2026-05-04 01:04 | 27.21423 | 128.82611 | 30407 ft | 539 kts | 25° |
| 2026-05-04 01:04 | 27.24742 | 128.84633 | 31201 ft | 536 kts | 25° |
| 2026-05-04 01:05 | 27.28001 | 128.86620 | 31967 ft | 532 kts | 24° |
| 2026-05-04 01:05 | 27.31278 | 128.88617 | 32683 ft | 529 kts | 24° |
| 2026-05-04 01:05 | 27.34501 | 128.90582 | 33295 ft | 528 kts | 24° |
| 2026-05-04 01:05 | 27.37725 | 128.92551 | 33898 ft | 528 kts | 24° |
| 2026-05-04 01:06 | 27.40986 | 128.94542 | 34508 ft | 526 kts | 23° |
| 2026-05-04 01:06 | 27.44179 | 128.96495 | 35033 ft | 526 kts | 23° |
| 2026-05-04 01:06 | 27.47396 | 128.98460 | 35059 ft | 527 kts | 23° |
| 2026-05-04 01:07 | 27.53867 | 129.02423 | 35067 ft | 526 kts | 23° |
| 2026-05-04 01:07 | 27.60445 | 129.06455 | 35068 ft | 527 kts | 23° |
| 2026-05-04 01:08 | 27.66878 | 129.10405 | 35074 ft | 526 kts | 22° |
| 2026-05-04 01:08 | 27.73315 | 129.14362 | 35076 ft | 529 kts | 23° |
| 2026-05-04 01:09 | 27.79819 | 129.18365 | 35073 ft | 528 kts | 23° |
| 2026-05-04 01:09 | 27.86292 | 129.22356 | 35079 ft | 533 kts | 23° |
| 2026-05-04 01:10 | 27.92932 | 129.26450 | 35080 ft | 548 kts | 23° |
| 2026-05-04 01:10 | 27.99719 | 129.30644 | 35076 ft | 559 kts | 23° |
| 2026-05-04 01:11 | 28.06538 | 129.34868 | 35076 ft | 560 kts | 23° |
| 2026-05-04 01:11 | 28.13407 | 129.39130 | 35077 ft | 559 kts | 23° |
| 2026-05-04 01:12 | 28.20293 | 129.43405 | 35071 ft | 562 kts | 23° |
| 2026-05-04 01:12 | 28.27132 | 129.47661 | 35075 ft | 560 kts | 23° |
| 2026-05-04 01:13 | 28.33945 | 129.52109 | 35068 ft | 566 kts | 30° |
| 2026-05-04 01:13 | 28.39859 | 129.58226 | 35067 ft | 578 kts | 47° |
| 2026-05-04 01:14 | 28.44194 | 129.65942 | 35057 ft | 584 kts | 65° |
| 2026-05-04 01:14 | 28.46612 | 129.74712 | 35048 ft | 582 kts | 82° |
| 2026-05-04 01:15 | 28.47502 | 129.83817 | 35054 ft | 581 kts | 86° |
| 2026-05-04 01:15 | 28.48336 | 129.92972 | 35052 ft | 579 kts | 85° |
| 2026-05-04 01:16 | 28.49225 | 130.02103 | 35053 ft | 580 kts | 85° |
| 2026-05-04 01:16 | 28.50512 | 130.11168 | 35053 ft | 583 kts | 75° |
| 2026-05-04 01:17 | 28.53656 | 130.19595 | 35055 ft | 579 kts | 57° |
| 2026-05-04 01:17 | 28.58131 | 130.27206 | 35055 ft | 580 kts | 53° |
| 2026-05-04 01:18 | 28.62709 | 130.34758 | 35058 ft | 577 kts | 53° |
| 2026-05-04 01:18 | 28.67314 | 130.42374 | 35055 ft | 582 kts | 53° |
| 2026-05-04 01:19 | 28.71869 | 130.49925 | 35056 ft | 582 kts | 53° |
| 2026-05-04 01:19 | 28.76460 | 130.57550 | 35054 ft | 579 kts | 53° |
| 2026-05-04 01:20 | 28.81010 | 130.65115 | 35048 ft | 579 kts | 54° |
| 2026-05-04 01:20 | 28.85585 | 130.72734 | 35027 ft | 580 kts | 54° |
| 2026-05-04 01:21 | 28.90148 | 130.80350 | 35028 ft | 581 kts | 54° |
| 2026-05-04 01:21 | 28.94697 | 130.87958 | 35021 ft | 581 kts | 53° |
| 2026-05-04 01:22 | 28.99242 | 130.95572 | 35030 ft | 582 kts | 54° |
| 2026-05-04 01:22 | 29.03813 | 131.03242 | 35016 ft | 581 kts | 53° |
| 2026-05-04 01:23 | 29.08354 | 131.10878 | 35016 ft | 581 kts | 54° |
| 2026-05-04 01:23 | 29.12903 | 131.18541 | 35012 ft | 583 kts | 54° |
| 2026-05-04 01:24 | 29.17468 | 131.26247 | 35008 ft | 583 kts | 54° |
| 2026-05-04 01:24 | 29.21996 | 131.33902 | 35013 ft | 584 kts | 54° |
| 2026-05-04 01:25 | 29.26535 | 131.41592 | 35016 ft | 581 kts | 54° |
| 2026-05-04 01:25 | 29.31059 | 131.49269 | 35014 ft | 581 kts | 54° |
| 2026-05-04 01:26 | 29.35588 | 131.56969 | 35013 ft | 581 kts | 54° |
| 2026-05-04 01:26 | 29.40122 | 131.64696 | 35016 ft | 582 kts | 54° |
| 2026-05-04 01:27 | 29.44620 | 131.72378 | 35007 ft | 582 kts | 55° |
| 2026-05-04 01:27 | 29.49148 | 131.80127 | 35008 ft | 582 kts | 55° |
| 2026-05-04 01:28 | 29.53659 | 131.87860 | 35011 ft | 582 kts | 54° |
| 2026-05-04 01:28 | 29.58159 | 131.95590 | 35013 ft | 583 kts | 55° |
| 2026-05-04 01:29 | 29.62692 | 132.03389 | 35011 ft | 583 kts | 55° |
| 2026-05-04 01:29 | 29.67436 | 132.10951 | 35021 ft | 581 kts | 49° |
| 2026-05-04 01:30 | 29.72577 | 132.18152 | 35015 ft | 582 kts | 48° |
| 2026-05-04 01:30 | 29.77714 | 132.25346 | 35011 ft | 582 kts | 48° |
| 2026-05-04 01:31 | 29.82837 | 132.32542 | 35010 ft | 583 kts | 49° |
| 2026-05-04 01:31 | 29.87997 | 132.39806 | 35016 ft | 583 kts | 48° |
| 2026-05-04 01:32 | 29.93111 | 132.47021 | 35014 ft | 583 kts | 49° |
| 2026-05-04 01:32 | 29.98257 | 132.54297 | 35012 ft | 582 kts | 49° |
| 2026-05-04 01:33 | 30.03374 | 132.61543 | 35020 ft | 584 kts | 49° |
| 2026-05-04 01:33 | 30.08487 | 132.68800 | 34991 ft | 583 kts | 49° |
| 2026-05-04 01:34 | 30.13613 | 132.76088 | 34989 ft | 583 kts | 49° |
| 2026-05-04 01:34 | 30.18752 | 132.83406 | 34982 ft | 584 kts | 49° |
| 2026-05-04 01:35 | 30.23882 | 132.90727 | 34975 ft | 585 kts | 50° |
| 2026-05-04 01:35 | 30.29032 | 132.98091 | 34978 ft | 587 kts | 49° |
| 2026-05-04 01:36 | 30.34150 | 133.05421 | 34980 ft | 587 kts | 49° |
| 2026-05-04 01:36 | 30.39288 | 133.12793 | 34973 ft | 587 kts | 49° |
| 2026-05-04 01:37 | 30.44442 | 133.20201 | 34969 ft | 589 kts | 49° |
| 2026-05-04 01:37 | 30.49551 | 133.27560 | 34970 ft | 587 kts | 50° |
| 2026-05-04 01:38 | 30.54678 | 133.34958 | 34962 ft | 588 kts | 49° |
| 2026-05-04 01:38 | 30.59812 | 133.42381 | 34962 ft | 587 kts | 50° |
| 2026-05-04 01:39 | 30.64910 | 133.49764 | 34965 ft | 587 kts | 49° |
| 2026-05-04 01:39 | 30.70045 | 133.57214 | 34957 ft | 588 kts | 50° |
| 2026-05-04 01:40 | 30.75150 | 133.64638 | 34955 ft | 590 kts | 49° |
| 2026-05-04 01:40 | 30.80257 | 133.72076 | 34938 ft | 589 kts | 50° |
| 2026-05-04 01:41 | 30.85362 | 133.79523 | 34923 ft | 587 kts | 50° |
| 2026-05-04 01:41 | 30.90498 | 133.87027 | 34918 ft | 590 kts | 50° |
| 2026-05-04 01:42 | 30.95598 | 133.94495 | 34921 ft | 589 kts | 50° |
| 2026-05-04 01:42 | 31.00716 | 134.02000 | 34929 ft | 590 kts | 50° |
| 2026-05-04 01:43 | 31.05797 | 134.09468 | 34927 ft | 588 kts | 50° |
| 2026-05-04 01:43 | 31.10877 | 134.16950 | 34930 ft | 589 kts | 50° |
| 2026-05-04 01:44 | 31.15995 | 134.24498 | 34919 ft | 591 kts | 50° |
| 2026-05-04 01:44 | 31.21082 | 134.32018 | 34918 ft | 588 kts | 50° |
| 2026-05-04 01:45 | 31.26155 | 134.39533 | 34913 ft | 587 kts | 50° |
| 2026-05-04 01:45 | 31.33755 | 134.50815 | 34915 ft | 590 kts | 50° |
| 2026-05-04 01:46 | 31.38823 | 134.58357 | 34905 ft | 588 kts | 50° |
| 2026-05-04 01:46 | 31.43884 | 134.65903 | 34898 ft | 589 kts | 50° |
| 2026-05-04 01:47 | 31.48959 | 134.73486 | 34875 ft | 590 kts | 51° |
| 2026-05-04 01:47 | 31.54026 | 134.81071 | 34885 ft | 589 kts | 50° |
| 2026-05-04 01:48 | 31.59080 | 134.88652 | 34875 ft | 590 kts | 51° |
| 2026-05-04 01:48 | 31.64140 | 134.96257 | 34874 ft | 593 kts | 50° |
| 2026-05-04 01:49 | 31.69239 | 135.03935 | 34881 ft | 592 kts | 51° |
| 2026-05-04 01:49 | 31.74383 | 135.11423 | 34895 ft | 589 kts | 45° |
| 2026-05-04 01:50 | 31.79918 | 135.18535 | 34885 ft | 589 kts | 45° |
| 2026-05-04 01:50 | 31.85475 | 135.25700 | 34877 ft | 592 kts | 45° |
| 2026-05-04 01:51 | 31.90988 | 135.32857 | 34878 ft | 590 kts | 45° |
| 2026-05-04 01:51 | 31.96525 | 135.40077 | 34872 ft | 593 kts | 46° |
| 2026-05-04 01:52 | 32.02060 | 135.47321 | 34872 ft | 590 kts | 46° |
| 2026-05-04 01:52 | 32.07556 | 135.54536 | 34874 ft | 592 kts | 45° |
| 2026-05-04 01:53 | 32.13072 | 135.61793 | 34869 ft | 591 kts | 46° |
| 2026-05-04 01:53 | 32.18551 | 135.69022 | 34840 ft | 590 kts | 46° |
| 2026-05-04 01:54 | 32.24066 | 135.76311 | 34847 ft | 593 kts | 46° |
| 2026-05-04 01:54 | 32.29547 | 135.83571 | 34846 ft | 592 kts | 46° |
| 2026-05-04 01:55 | 32.35010 | 135.90820 | 34828 ft | 591 kts | 46° |
| 2026-05-04 01:55 | 32.40499 | 135.98120 | 34831 ft | 593 kts | 46° |
| 2026-05-04 01:56 | 32.45967 | 136.05403 | 34826 ft | 595 kts | 46° |
| 2026-05-04 01:56 | 32.51454 | 136.12718 | 34830 ft | 592 kts | 46° |
| 2026-05-04 01:57 | 32.56902 | 136.19997 | 34828 ft | 592 kts | 46° |
| 2026-05-04 01:57 | 32.62415 | 136.27374 | 34820 ft | 595 kts | 46° |
| 2026-05-04 01:58 | 32.67900 | 136.34732 | 34818 ft | 596 kts | 46° |
| 2026-05-04 01:58 | 32.73391 | 136.42111 | 34816 ft | 596 kts | 46° |
| 2026-05-04 01:59 | 32.78863 | 136.49483 | 34817 ft | 595 kts | 46° |
| 2026-05-04 01:59 | 32.84333 | 136.56863 | 34825 ft | 597 kts | 46° |
| 2026-05-04 02:00 | 32.89834 | 136.64302 | 34812 ft | 596 kts | 46° |
| 2026-05-04 02:00 | 32.95297 | 136.71698 | 34790 ft | 596 kts | 47° |
| 2026-05-04 02:01 | 33.00799 | 136.79158 | 34798 ft | 596 kts | 46° |
| 2026-05-04 02:01 | 33.06269 | 136.86589 | 34787 ft | 596 kts | 47° |
| 2026-05-04 02:02 | 33.11724 | 136.94014 | 34784 ft | 597 kts | 47° |
| 2026-05-04 02:02 | 33.17208 | 137.01497 | 34773 ft | 596 kts | 47° |
| 2026-05-04 02:03 | 33.22718 | 137.09029 | 34777 ft | 599 kts | 47° |
| 2026-05-04 02:03 | 33.28210 | 137.16556 | 34781 ft | 598 kts | 47° |
| 2026-05-04 02:04 | 33.33667 | 137.24049 | 34774 ft | 600 kts | 47° |
| 2026-05-04 02:04 | 33.39113 | 137.31545 | 34771 ft | 600 kts | 46° |
| 2026-05-04 02:05 | 33.44604 | 137.39117 | 34779 ft | 601 kts | 47° |
| 2026-05-04 02:05 | 33.50074 | 137.46677 | 34779 ft | 602 kts | 47° |
| 2026-05-04 02:06 | 33.55547 | 137.54257 | 34782 ft | 603 kts | 47° |
| 2026-05-04 02:06 | 33.60901 | 137.62064 | 34790 ft | 604 kts | 55° |
| 2026-05-04 02:07 | 33.65151 | 137.70790 | 34761 ft | 606 kts | 61° |
| 2026-05-04 02:07 | 33.69240 | 137.79709 | 34755 ft | 608 kts | 62° |
| 2026-05-04 02:08 | 33.73295 | 137.88583 | 34755 ft | 608 kts | 62° |
| 2026-05-04 02:08 | 33.77362 | 137.97508 | 34757 ft | 608 kts | 62° |
| 2026-05-04 02:09 | 33.81430 | 138.06456 | 34757 ft | 608 kts | 62° |
| 2026-05-04 02:09 | 33.85433 | 138.15283 | 34753 ft | 589 kts | 62° |
| 2026-05-04 02:10 | 33.87376 | 138.19575 | 34751 ft | 577 kts | 62° |
| 2026-05-04 02:10 | 33.89281 | 138.23789 | 34760 ft | 573 kts | 62° |
| 2026-05-04 02:10 | 33.93095 | 138.32271 | 34753 ft | 577 kts | 62° |
| 2026-05-04 02:11 | 33.94981 | 138.36507 | 34342 ft | 570 kts | 62° |
| 2026-05-04 02:11 | 33.96849 | 138.40707 | 33586 ft | 570 kts | 62° |
| 2026-05-04 02:11 | 33.98751 | 138.44991 | 32562 ft | 576 kts | 62° |
| 2026-05-04 02:11 | 34.00648 | 138.49266 | 31555 ft | 582 kts | 62° |
| 2026-05-04 02:12 | 34.02553 | 138.53563 | 30741 ft | 582 kts | 63° |
| 2026-05-04 02:12 | 34.04443 | 138.57831 | 29823 ft | 575 kts | 62° |
| 2026-05-04 02:12 | 34.06314 | 138.62064 | 29169 ft | 570 kts | 62° |
| 2026-05-04 02:12 | 34.08178 | 138.66280 | 28464 ft | 569 kts | 63° |
| 2026-05-04 02:13 | 34.10031 | 138.70480 | 27839 ft | 567 kts | 63° |
| 2026-05-04 02:13 | 34.11883 | 138.74683 | 27229 ft | 563 kts | 63° |
| 2026-05-04 02:13 | 34.13717 | 138.78850 | 26645 ft | 559 kts | 63° |
| 2026-05-04 02:13 | 34.15549 | 138.83015 | 26053 ft | 555 kts | 63° |
| 2026-05-04 02:14 | 34.17349 | 138.87115 | 25468 ft | 551 kts | 63° |
| 2026-05-04 02:14 | 34.19133 | 138.91182 | 24879 ft | 548 kts | 64° |
| 2026-05-04 02:14 | 34.20902 | 138.95221 | 24290 ft | 544 kts | 64° |
| 2026-05-04 02:14 | 34.22659 | 138.99236 | 23714 ft | 541 kts | 64° |
| 2026-05-04 02:15 | 34.24407 | 139.03233 | 23150 ft | 537 kts | 64° |
| 2026-05-04 02:15 | 34.26162 | 139.07253 | 22569 ft | 534 kts | 63° |
| 2026-05-04 02:15 | 34.27879 | 139.11192 | 22002 ft | 531 kts | 64° |
| 2026-05-04 02:15 | 34.29401 | 139.15212 | 21433 ft | 527 kts | 69° |
| 2026-05-04 02:16 | 34.30829 | 139.19325 | 20842 ft | 525 kts | 69° |
| 2026-05-04 02:16 | 34.32216 | 139.23352 | 20247 ft | 523 kts | 70° |
| 2026-05-04 02:16 | 34.33620 | 139.27434 | 19649 ft | 520 kts | 69° |
| 2026-05-04 02:16 | 34.34996 | 139.31436 | 19064 ft | 518 kts | 69° |
| 2026-05-04 02:17 | 34.36383 | 139.35475 | 18479 ft | 515 kts | 69° |
| 2026-05-04 02:17 | 34.37747 | 139.39445 | 17896 ft | 513 kts | 69° |
| 2026-05-04 02:17 | 34.39122 | 139.43455 | 17317 ft | 510 kts | 69° |
| 2026-05-04 02:17 | 34.40467 | 139.47380 | 16743 ft | 508 kts | 69° |
| 2026-05-04 02:18 | 34.41811 | 139.51311 | 16159 ft | 505 kts | 68° |
| 2026-05-04 02:18 | 34.43160 | 139.55254 | 15804 ft | 496 kts | 69° |
| 2026-05-04 02:18 | 34.44472 | 139.59099 | 15118 ft | 497 kts | 69° |
| 2026-05-04 02:18 | 34.45781 | 139.62935 | 14557 ft | 494 kts | 69° |
| 2026-05-04 02:19 | 34.47287 | 139.66652 | 14449 ft | 478 kts | 59° |
| 2026-05-04 02:19 | 34.49150 | 139.69864 | 14384 ft | 461 kts | 49° |
| 2026-05-04 02:19 | 34.51350 | 139.72629 | 14085 ft | 449 kts | 38° |
| 2026-05-04 02:19 | 34.53820 | 139.74884 | 13974 ft | 431 kts | 29° |
| 2026-05-04 02:20 | 34.56266 | 139.76854 | 13965 ft | 415 kts | 28° |
| 2026-05-04 02:20 | 34.58665 | 139.78748 | 13945 ft | 399 kts | 27° |
| 2026-05-04 02:20 | 34.60957 | 139.80530 | 13794 ft | 389 kts | 27° |
| 2026-05-04 02:20 | 34.63258 | 139.82286 | 13091 ft | 399 kts | 27° |
| 2026-05-04 02:21 | 34.65678 | 139.84108 | 12169 ft | 417 kts | 26° |
| 2026-05-04 02:21 | 34.68343 | 139.85733 | 11727 ft | 428 kts | 14° |
| 2026-05-04 02:21 | 34.71137 | 139.86798 | 11666 ft | 413 kts | 9° |
| 2026-05-04 02:21 | 34.73854 | 139.87686 | 11485 ft | 401 kts | 7° |
| 2026-05-04 02:22 | 34.76604 | 139.88504 | 10744 ft | 408 kts | 6° |
| 2026-05-04 02:22 | 34.79382 | 139.89320 | 9970 ft | 416 kts | 7° |
| 2026-05-04 02:22 | 34.82193 | 139.90152 | 9499 ft | 403 kts | 7° |
| 2026-05-04 02:22 | 34.84858 | 139.90948 | 9248 ft | 383 kts | 7° |
| 2026-05-04 02:23 | 34.87370 | 139.91701 | 9106 ft | 363 kts | 6° |
| 2026-05-04 02:23 | 34.89762 | 139.92416 | 9083 ft | 348 kts | 6° |
| 2026-05-04 02:23 | 34.92119 | 139.93118 | 8848 ft | 343 kts | 6° |
| 2026-05-04 02:23 | 34.94433 | 139.93805 | 8462 ft | 343 kts | 5° |
| 2026-05-04 02:24 | 34.96747 | 139.94492 | 8107 ft | 342 kts | 6° |
| 2026-05-04 02:24 | 34.99092 | 139.95186 | 7748 ft | 341 kts | 6° |
| 2026-05-04 02:24 | 35.01377 | 139.95866 | 7508 ft | 335 kts | 5° |
| 2026-05-04 02:24 | 35.03632 | 139.96539 | 7306 ft | 328 kts | 5° |
| 2026-05-04 02:25 | 35.05799 | 139.97191 | 7298 ft | 314 kts | 5° |
| 2026-05-04 02:25 | 35.07925 | 139.97827 | 7093 ft | 308 kts | 5° |
| 2026-05-04 02:25 | 35.10008 | 139.98447 | 6754 ft | 309 kts | 5° |
| 2026-05-04 02:25 | 35.12117 | 139.99072 | 6374 ft | 310 kts | 5° |
| 2026-05-04 02:26 | 35.14204 | 139.99695 | 6151 ft | 305 kts | 5° |
| 2026-05-04 02:26 | 35.16259 | 140.00308 | 5856 ft | 303 kts | 6° |
| 2026-05-04 02:26 | 35.18304 | 140.00917 | 5553 ft | 301 kts | 6° |
| 2026-05-04 02:26 | 35.20373 | 140.01533 | 5242 ft | 300 kts | 6° |
| 2026-05-04 02:27 | 35.22385 | 140.02135 | 5073 ft | 293 kts | 6° |
| 2026-05-04 02:27 | 35.24361 | 140.02724 | 5059 ft | 298 kts | 7° |
| 2026-05-04 02:27 | 35.26390 | 140.03326 | 5050 ft | 297 kts | 6° |
| 2026-05-04 02:27 | 35.28403 | 140.03928 | 5047 ft | 296 kts | 7° |
| 2026-05-04 02:28 | 35.30416 | 140.04529 | 5053 ft | 296 kts | 7° |
| 2026-05-04 02:28 | 35.32424 | 140.05129 | 5050 ft | 295 kts | 6° |
| 2026-05-04 02:28 | 35.34458 | 140.05736 | 5043 ft | 295 kts | 7° |
| 2026-05-04 02:28 | 35.36442 | 140.06329 | 5030 ft | 292 kts | 7° |
| 2026-05-04 02:29 | 35.38425 | 140.06923 | 5034 ft | 293 kts | 7° |
| 2026-05-04 02:29 | 35.40424 | 140.07520 | 5038 ft | 295 kts | 6° |
| 2026-05-04 02:29 | 35.42422 | 140.08118 | 5033 ft | 293 kts | 7° |
| 2026-05-04 02:29 | 35.44418 | 140.08716 | 5053 ft | 294 kts | 7° |
| 2026-05-04 02:30 | 35.46410 | 140.09312 | 5054 ft | 293 kts | 7° |
| 2026-05-04 02:30 | 35.48370 | 140.09900 | 5044 ft | 293 kts | 7° |
| 2026-05-04 02:30 | 35.50370 | 140.10500 | 5013 ft | 291 kts | 8° |
| 2026-05-04 02:30 | 35.52351 | 140.11095 | 5014 ft | 291 kts | 8° |
| 2026-05-04 02:31 | 35.54343 | 140.11691 | 5029 ft | 294 kts | 7° |
| 2026-05-04 02:31 | 35.56307 | 140.12280 | 5021 ft | 292 kts | 8° |
| 2026-05-04 02:31 | 35.58291 | 140.12877 | 5014 ft | 292 kts | 8° |
| 2026-05-04 02:31 | 35.60276 | 140.13474 | 5021 ft | 293 kts | 8° |
| 2026-05-04 02:32 | 35.62268 | 140.14073 | 5020 ft | 290 kts | 8° |
| 2026-05-04 02:32 | 35.64235 | 140.14665 | 5026 ft | 293 kts | 8° |
| 2026-05-04 02:32 | 35.66223 | 140.15173 | 5007 ft | 285 kts | 355° |
| 2026-05-04 02:32 | 35.68127 | 140.14845 | 5020 ft | 271 kts | 334° |
| 2026-05-04 02:33 | 35.69880 | 140.14011 | 5017 ft | 268 kts | 328° |
| 2026-05-04 02:33 | 35.71583 | 140.13072 | 5012 ft | 266 kts | 328° |
| 2026-05-04 02:33 | 35.73257 | 140.12125 | 5011 ft | 266 kts | 328° |
| 2026-05-04 02:33 | 35.74945 | 140.11168 | 5023 ft | 266 kts | 328° |
| 2026-05-04 02:34 | 35.76658 | 140.10199 | 5016 ft | 267 kts | 329° |
| 2026-05-04 02:34 | 35.78342 | 140.09245 | 4994 ft | 268 kts | 328° |
| 2026-05-04 02:34 | 35.79999 | 140.08221 | 4985 ft | 261 kts | 317° |
| 2026-05-04 02:34 | 35.81173 | 140.06595 | 5002 ft | 250 kts | 290° |
| 2026-05-04 02:35 | 35.81594 | 140.04607 | 5003 ft | 238 kts | 266° |
| 2026-05-04 02:35 | 35.81344 | 140.02600 | 4999 ft | 233 kts | 251° |
| 2026-05-04 02:35 | 35.80845 | 140.00748 | 4999 ft | 223 kts | 247° |
| 2026-05-04 02:35 | 35.80260 | 139.99022 | 5016 ft | 211 kts | 244° |
| 2026-05-04 02:36 | 35.79462 | 139.97595 | 4998 ft | 197 kts | 227° |
| 2026-05-04 02:36 | 35.78468 | 139.96480 | 4995 ft | 184 kts | 221° |
| 2026-05-04 02:36 | 35.77467 | 139.95523 | 4801 ft | 178 kts | 219° |
| 2026-05-04 02:36 | 35.76481 | 139.94649 | 4586 ft | 172 kts | 218° |
| 2026-05-04 02:37 | 35.75504 | 139.93799 | 4381 ft | 169 kts | 218° |
| 2026-05-04 02:37 | 35.74536 | 139.92964 | 4174 ft | 170 kts | 217° |
| 2026-05-04 02:37 | 35.73566 | 139.92131 | 3964 ft | 171 kts | 217° |
| 2026-05-04 02:37 | 35.72591 | 139.91292 | 3748 ft | 173 kts | 217° |
| 2026-05-04 02:38 | 35.71592 | 139.90433 | 3522 ft | 172 kts | 216° |
| 2026-05-04 02:38 | 35.70619 | 139.89597 | 3302 ft | 170 kts | 216° |
| 2026-05-04 02:38 | 35.69656 | 139.88771 | 3085 ft | 166 kts | 215° |
| 2026-05-04 02:38 | 35.68742 | 139.87985 | 2866 ft | 152 kts | 215° |
| 2026-05-04 02:39 | 35.67896 | 139.87257 | 2683 ft | 143 kts | 216° |
| 2026-05-04 02:39 | 35.67062 | 139.86542 | 2488 ft | 147 kts | 215° |
| 2026-05-04 02:39 | 35.66214 | 139.85815 | 2292 ft | 149 kts | 215° |
| 2026-05-04 02:39 | 35.65363 | 139.85086 | 2094 ft | 151 kts | 215° |
| 2026-05-04 02:40 | 35.64504 | 139.84349 | 1892 ft | 149 kts | 215° |
| 2026-05-04 02:40 | 35.63638 | 139.83604 | 1672 ft | 150 kts | 214° |
| 2026-05-04 02:40 | 35.62785 | 139.82875 | 1472 ft | 151 kts | 214° |
| 2026-05-04 02:40 | 35.61926 | 139.82141 | 1277 ft | 147 kts | 215° |
| 2026-05-04 02:41 | 35.61079 | 139.81410 | 1063 ft | 147 kts | 215° |
| 2026-05-04 02:41 | 35.60239 | 139.80702 | 875 ft | 146 kts | 214° |
| 2026-05-04 02:41 | 35.59403 | 139.79970 | 712 ft | 146 kts | 214° |
| 2026-05-04 02:41 | 35.58564 | 139.79268 | 517 ft | 146 kts | 214° |
| 2026-05-04 02:42 | 35.57727 | 139.78537 | 309 ft | 147 kts | 212° |
| 2026-05-04 02:42 | 35.56884 | 139.77849 | 102 ft | 145 kts | 215° |
| 2026-05-04 02:42 | 35.56100 | 139.77158 | 34 ft | 122 kts | 215° |
| 2026-05-04 02:42 | 35.55530 | 139.76668 | 34 ft | 78 kts | 215° |
| 2026-05-04 02:43 | 35.55235 | 139.76416 | 34 ft | 21 kts | 215° |
| 2026-05-04 02:43 | 35.55109 | 139.76341 | 34 ft | 19 kts | 197° |
| 2026-05-04 02:43 | 35.54987 | 139.76308 | 34 ft | 16 kts | 187° |
| 2026-05-04 02:43 | 35.54920 | 139.76375 | 34 ft | 12 kts | 81° |
| 2026-05-04 02:44 | 35.54998 | 139.76477 | 34 ft | 18 kts | 34° |
| 2026-05-04 02:44 | 35.55090 | 139.76584 | 34 ft | 17 kts | 57° |
| 2026-05-04 02:44 | 35.55161 | 139.76733 | 34 ft | 23 kts | 60° |
| 2026-05-04 02:44 | 35.55247 | 139.76912 | 34 ft | 24 kts | 60° |
| 2026-05-04 02:45 | 35.55318 | 139.77075 | 34 ft | 16 kts | 79° |
| 2026-05-04 02:45 | 35.55259 | 139.77174 | 34 ft | 14 kts | 147° |
| 2026-05-04 02:45 | 35.55167 | 139.77248 | 34 ft | 15 kts | 133° |
| 2026-05-04 02:45 | 35.55175 | 139.77374 | 34 ft | 18 kts | 63° |
| 2026-05-04 02:46 | 35.55248 | 139.77531 | 34 ft | 21 kts | 60° |
| 2026-05-04 02:46 | 35.55319 | 139.77679 | 34 ft | 18 kts | 62° |
| 2026-05-04 02:46 | 35.55272 | 139.77805 | 34 ft | 22 kts | 142° |
| 2026-05-04 02:46 | 35.55114 | 139.77916 | 34 ft | 25 kts | 149° |
| 2026-05-04 02:47 | 35.54968 | 139.78020 | 34 ft | 22 kts | 150° |
| 2026-05-04 02:47 | 35.54911 | 139.78088 | 34 ft | 9 kts | 91° |
| 2026-05-04 02:47 | 35.54933 | 139.78165 | 34 ft | 9 kts | 63° |
| 2026-05-04 02:47 | 35.54958 | 139.78221 | 34 ft | 0 kts | 61° |